Time;durP1;ratioP1;P1;durP2;ratioP2;P2;SDS_P1;SDS_P2;PMS_P1;PMS_P2;Temp;Humidity;BMP_temperature;BMP_pressure;BME280_temperature;BME280_humidity;BME280_pressure;Samples;Min_cycle;Max_cycle;Signal;HPM_P1;HPM_P2
2023/12/11 00:00:32;;;;;;;66.37;26.03;;;;;;;1.63;100.00;99167.78;4183976;28;20236;-69
2023/12/11 00:02:59;;;;;;;64.40;26.23;;;;;;;1.70;100.00;99168.16;4177881;28;20233;-68
2023/12/11 00:05:26;;;;;;;61.83;25.90;;;;;;;1.69;100.00;99166.44;4198159;28;20229;-71
2023/12/11 00:07:52;;;;;;;64.27;25.60;;;;;;;1.69;100.00;99167.28;4184914;28;22986;-69
2023/12/11 00:10:19;;;;;;;63.80;26.30;;;;;;;1.77;100.00;99152.47;4183822;28;20395;-67
2023/12/11 00:12:46;;;;;;;63.57;26.00;;;;;;;1.71;100.00;99160.00;4179574;28;20296;-67
2023/12/11 00:15:13;;;;;;;63.23;25.47;;;;;;;1.66;100.00;99150.66;4195023;28;20357;-69
2023/12/11 00:17:40;;;;;;;66.93;26.27;;;;;;;1.69;100.00;99143.28;4184792;28;21535;-67
2023/12/11 00:20:08;;;;;;;63.87;25.27;;;;;;;1.68;100.00;99140.72;4183844;28;20240;-68
2023/12/11 00:22:35;;;;;;;60.57;26.07;;;;;;;1.73;100.00;99146.53;4175891;28;22199;-71
2023/12/11 00:25:02;;;;;;;63.27;25.43;;;;;;;1.78;100.00;99146.19;4182146;28;20245;-69
2023/12/11 00:27:29;;;;;;;65.13;25.97;;;;;;;1.76;100.00;99146.31;4185502;28;21305;-71
2023/12/11 00:29:58;;;;;;;70.00;25.13;;;;;;;1.79;100.00;99137.19;4182093;28;20232;-67
2023/12/11 00:32:25;;;;;;;66.27;25.87;;;;;;;1.77;100.00;99142.66;4178682;28;21795;-69
2023/12/11 00:34:52;;;;;;;58.57;24.43;;;;;;;1.82;100.00;99140.47;4188837;28;20229;-67
2023/12/11 00:37:18;;;;;;;62.80;23.23;;;;;;;1.90;100.00;99142.50;4179094;28;20241;-71
2023/12/11 00:39:45;;;;;;;61.60;24.33;;;;;;;1.86;100.00;99138.41;4176923;28;20317;-70
2023/12/11 00:42:12;;;;;;;59.83;23.93;;;;;;;1.88;100.00;99133.81;4180176;28;20249;-71
2023/12/11 00:44:39;;;;;;;66.07;24.67;;;;;;;1.89;100.00;99140.81;4192472;28;20364;-68
2023/12/11 00:47:05;;;;;;;56.83;23.57;;;;;;;1.94;100.00;99141.31;4178552;28;20233;-66
2023/12/11 00:49:32;;;;;;;62.47;23.30;;;;;;;1.97;100.00;99140.19;4178348;28;20728;-69
2023/12/11 00:51:59;;;;;;;57.67;23.13;;;;;;;1.93;100.00;99138.78;4190528;28;20296;-69
2023/12/11 00:54:26;;;;;;;56.97;24.07;;;;;;;1.88;100.00;99141.81;4195779;28;20281;-68
2023/12/11 00:56:52;;;;;;;58.77;23.37;;;;;;;1.92;100.00;99132.56;4182242;28;20316;-69
2023/12/11 00:59:19;;;;;;;58.73;23.57;;;;;;;1.89;100.00;99136.34;4182313;28;22365;-67
2023/12/11 01:01:46;;;;;;;55.63;22.33;;;;;;;1.90;100.00;99134.50;4177232;28;22627;-70
2023/12/11 01:04:12;;;;;;;57.27;23.00;;;;;;;1.99;100.00;99138.25;4185703;28;20237;-71
2023/12/11 01:06:39;;;;;;;63.70;23.90;;;;;;;1.93;100.00;99128.94;4185106;28;21861;-67
2023/12/11 01:09:06;;;;;;;59.27;22.80;;;;;;;1.95;100.00;99127.00;4175806;28;22130;-66
2023/12/11 01:11:33;;;;;;;61.20;24.57;;;;;;;1.94;100.00;99127.97;4182421;28;20324;-69
2023/12/11 01:13:59;;;;;;;57.33;23.53;;;;;;;1.97;100.00;99132.19;4180755;28;20269;-70
2023/12/11 01:16:26;;;;;;;64.80;23.47;;;;;;;1.90;100.00;99123.81;4188655;28;20346;-66
2023/12/11 01:18:53;;;;;;;56.73;22.50;;;;;;;1.94;100.00;99125.28;4174654;28;21757;-67
2023/12/11 01:21:19;;;;;;;51.43;22.13;;;;;;;1.84;100.00;99114.53;4185504;28;20233;-71
2023/12/11 01:23:46;;;;;;;61.33;22.87;;;;;;;2.04;100.00;99117.38;4199228;28;20237;-68
2023/12/11 01:26:13;;;;;;;54.93;21.90;;;;;;;2.06;100.00;99121.59;4176448;28;20233;-67
2023/12/11 01:28:40;;;;;;;59.90;22.37;;;;;;;2.06;100.00;99118.09;4173255;28;21521;-67
2023/12/11 01:31:07;;;;;;;61.93;23.57;;;;;;;2.11;100.00;99109.72;4190991;28;20233;-67
2023/12/11 01:33:34;;;;;;;53.13;22.17;;;;;;;2.12;100.00;99109.59;4183646;28;20602;-67
2023/12/11 01:36:01;;;;;;;55.30;21.13;;;;;;;2.06;100.00;99107.44;4181914;28;20238;-68
2023/12/11 01:38:28;;;;;;;58.53;22.40;;;;;;;2.07;100.00;99098.44;4175813;28;20242;-66
2023/12/11 01:40:55;;;;;;;53.07;21.70;;;;;;;2.14;100.00;99104.13;4181449;28;20341;-67
2023/12/11 01:43:21;;;;;;;61.13;21.63;;;;;;;2.18;100.00;99100.22;4181329;28;20226;-69
2023/12/11 01:46:10;;;;;;;54.97;21.80;;;;;;;2.13;100.00;99102.41;4181747;28;20242;-68
2023/12/11 01:48:38;;;;;;;52.37;20.10;;;;;;;2.16;100.00;99099.50;4181695;28;21438;-68
2023/12/11 01:51:08;;;;;;;48.23;21.90;;;;;;;2.05;100.00;99098.56;4186633;28;21602;-66
2023/12/11 01:53:36;;;;;;;56.67;21.03;;;;;;;2.17;100.00;99087.84;4184134;28;20248;-68
2023/12/11 01:56:03;;;;;;;44.87;19.40;;;;;;;2.04;100.00;99088.84;4178405;28;20448;-66
2023/12/11 01:58:30;;;;;;;62.23;21.10;;;;;;;2.13;100.00;99086.41;4185795;28;20234;-68
2023/12/11 02:00:58;;;;;;;46.10;19.90;;;;;;;2.19;100.00;99089.41;4188711;28;22424;-66
2023/12/11 02:03:25;;;;;;;55.47;20.33;;;;;;;2.01;100.00;99074.91;4191836;28;20237;-67
2023/12/11 02:05:51;;;;;;;44.77;19.37;;;;;;;2.05;100.00;99076.38;4179403;28;20329;-66
2023/12/11 02:08:18;;;;;;;45.50;18.67;;;;;;;1.97;100.00;99084.16;4177180;28;21729;-67
2023/12/11 02:10:45;;;;;;;54.00;20.90;;;;;;;2.06;100.00;99081.56;4192377;28;20639;-67
2023/12/11 02:13:13;;;;;;;51.97;19.40;;;;;;;2.15;100.00;99079.13;4192896;28;21512;-65
2023/12/11 02:15:42;;;;;;;57.70;21.53;;;;;;;2.12;100.00;99069.53;4179243;28;20304;-68
2023/12/11 02:18:11;;;;;;;45.87;19.90;;;;;;;2.14;100.00;99064.06;4180774;28;21713;-70
2023/12/11 02:20:40;;;;;;;48.77;19.00;;;;;;;2.18;100.00;99060.19;4184403;28;22931;-67
2023/12/11 02:23:14;;;;;;;47.20;19.60;;;;;;;2.13;100.00;99059.69;4179395;28;20660;-68
2023/12/11 02:25:48;;;;;;;50.67;18.83;;;;;;;1.99;100.00;99055.53;4172459;28;20242;-68
2023/12/11 02:28:14;;;;;;;49.23;20.53;;;;;;;2.21;100.00;99062.59;4186282;28;20398;-67
2023/12/11 02:30:52;;;;;;;46.93;19.17;;;;;;;2.19;100.00;99056.53;4183117;28;20244;-67
2023/12/11 02:33:19;;;;;;;51.73;19.47;;;;;;;2.16;100.00;99052.28;4169745;28;23022;-67
2023/12/11 02:35:46;;;;;;;46.47;19.17;;;;;;;2.14;100.00;99046.25;4183664;28;20451;-68
2023/12/11 02:38:13;;;;;;;53.63;19.30;;;;;;;2.14;100.00;99034.69;4184471;28;23315;-67
2023/12/11 02:40:39;;;;;;;50.03;18.70;;;;;;;2.25;100.00;99039.16;4177816;28;20249;-67
2023/12/11 02:43:06;;;;;;;53.73;20.43;;;;;;;2.16;100.00;99035.44;4184426;28;20688;-67
2023/12/11 02:45:33;;;;;;;44.80;18.87;;;;;;;2.24;100.00;99029.44;4198330;28;25704;-70
2023/12/11 02:48:02;;;;;;;49.17;19.80;;;;;;;2.11;100.00;99016.28;4195875;28;22512;-66
2023/12/11 02:50:30;;;;;;;55.33;19.97;;;;;;;2.14;100.00;99005.34;4191790;28;20256;-67
2023/12/11 02:52:57;;;;;;;48.23;18.80;;;;;;;2.14;100.00;98998.19;4172333;28;21557;-70
2023/12/11 02:55:25;;;;;;;47.23;18.07;;;;;;;2.18;100.00;98999.63;4179169;28;20629;-68
2023/12/11 02:57:58;;;;;;;56.93;19.03;;;;;;;2.19;100.00;99014.66;4182853;28;21935;-68
2023/12/11 03:00:25;;;;;;;52.60;19.20;;;;;;;2.15;100.00;99015.88;4191405;28;25458;-69
2023/12/11 03:02:53;;;;;;;49.07;19.07;;;;;;;2.26;100.00;99030.16;4181180;28;20233;-68
2023/12/11 03:05:20;;;;;;;50.87;19.90;;;;;;;2.24;100.00;99005.41;4176264;28;20236;-70
2023/12/11 03:07:47;;;;;;;52.27;20.00;;;;;;;2.14;100.00;99011.53;4188394;28;20288;-68
2023/12/11 03:10:14;;;;;;;43.43;18.60;;;;;;;2.16;100.00;99001.56;4202314;28;20238;-69
2023/12/11 03:12:40;;;;;;;52.70;18.57;;;;;;;2.19;100.00;99000.47;4182578;28;20288;-67
2023/12/11 03:15:09;;;;;;;55.93;19.03;;;;;;;2.19;100.00;99003.16;4182651;28;20257;-71
2023/12/11 03:17:36;;;;;;;49.03;19.53;;;;;;;2.14;100.00;98995.53;4186340;28;20236;-71
2023/12/11 03:20:05;;;;;;;54.67;19.67;;;;;;;2.18;100.00;99002.28;4184102;28;21815;-68
2023/12/11 03:22:32;;;;;;;53.27;19.20;;;;;;;2.20;100.00;99008.34;4176374;28;20227;-66
2023/12/11 03:24:58;;;;;;;56.17;19.63;;;;;;;2.18;100.00;99026.31;4180324;28;20230;-66
2023/12/11 03:27:25;;;;;;;55.83;20.20;;;;;;;2.23;100.00;99025.94;4186646;28;20287;-67
2023/12/11 03:29:52;;;;;;;51.00;20.07;;;;;;;2.21;100.00;99027.88;4192885;28;20249;-65
2023/12/11 03:32:19;;;;;;;50.73;19.20;;;;;;;2.23;100.00;99009.91;4189857;28;20245;-68
2023/12/11 03:34:46;;;;;;;48.53;19.77;;;;;;;2.22;100.00;99011.75;4178424;28;21172;-67
2023/12/11 03:37:13;;;;;;;49.63;19.40;;;;;;;2.19;100.00;99014.66;4187357;28;22939;-66
2023/12/11 03:39:41;;;;;;;51.20;19.17;;;;;;;2.20;100.00;99015.50;4189218;28;20244;-69
2023/12/11 03:42:09;;;;;;;46.17;19.07;;;;;;;2.19;100.00;99003.97;4185308;28;20411;-67
2023/12/11 03:44:36;;;;;;;44.67;19.23;;;;;;;2.14;100.00;98998.19;4180758;28;20235;-67
2023/12/11 03:47:03;;;;;;;46.60;19.50;;;;;;;2.06;100.00;98998.00;4186859;28;20245;-68
2023/12/11 03:49:29;;;;;;;47.67;18.93;;;;;;;2.18;100.00;98982.75;4188233;28;20266;-68
2023/12/11 03:51:56;;;;;;;45.33;18.13;;;;;;;2.19;100.00;98977.28;4184330;28;20229;-67
2023/12/11 03:54:23;;;;;;;57.30;19.60;;;;;;;2.14;100.00;98974.16;4186106;28;20321;-69
2023/12/11 03:56:50;;;;;;;51.30;19.97;;;;;;;2.17;100.00;98970.38;4195731;28;20234;-67
2023/12/11 03:59:16;;;;;;;45.13;18.47;;;;;;;2.04;100.00;98959.91;4188430;28;20773;-68
2023/12/11 04:01:43;;;;;;;51.53;19.60;;;;;;;2.12;100.00;98968.09;4180860;28;20563;-69
2023/12/11 04:04:10;;;;;;;51.10;19.07;;;;;;;2.08;100.00;98965.81;4186688;28;21801;-66
2023/12/11 04:06:37;;;;;;;60.10;19.20;;;;;;;1.96;100.00;98957.03;4190389;28;20288;-67
2023/12/11 04:09:07;;;;;;;48.47;18.43;;;;;;;2.09;100.00;98952.34;4178754;28;20236;-69
2023/12/11 04:11:35;;;;;;;54.63;20.17;;;;;;;2.06;100.00;98949.94;4178599;28;22171;-70
2023/12/11 04:14:02;;;;;;;45.10;19.23;;;;;;;2.04;100.00;98950.06;4189104;28;20292;-68
2023/12/11 04:16:29;;;;;;;52.73;19.37;;;;;;;2.00;100.00;98953.97;4182355;28;25776;-67
2023/12/11 04:18:56;;;;;;;50.80;19.53;;;;;;;2.00;100.00;98951.31;4183529;28;22029;-68
2023/12/11 04:21:26;;;;;;;43.50;18.27;;;;;;;2.08;100.00;98939.13;4182927;28;20242;-66
2023/12/11 04:23:55;;;;;;;61.23;19.63;;;;;;;2.00;100.00;98931.78;4177953;28;20424;-71
2023/12/11 04:26:22;;;;;;;52.67;19.70;;;;;;;1.89;100.00;98919.31;4190159;28;21752;-68
2023/12/11 04:28:48;;;;;;;51.27;19.30;;;;;;;1.91;100.00;98914.69;4182483;28;20245;-67
2023/12/11 04:31:15;;;;;;;61.40;21.40;;;;;;;1.86;100.00;98912.41;4177743;28;21992;-67
2023/12/11 04:33:42;;;;;;;52.00;18.83;;;;;;;1.87;100.00;98908.78;4166663;28;22865;-67
2023/12/11 04:36:09;;;;;;;62.73;20.87;;;;;;;2.02;100.00;98905.78;4184521;28;22660;-68
2023/12/11 04:38:36;;;;;;;54.87;20.17;;;;;;;2.03;100.00;98908.34;4176502;28;20237;-68
2023/12/11 04:41:03;;;;;;;45.53;17.97;;;;;;;1.97;100.00;98906.19;4180234;28;21904;-68
2023/12/11 04:43:30;;;;;;;52.77;20.10;;;;;;;1.96;100.00;98906.31;4191473;28;25008;-69
2023/12/11 04:46:01;;;;;;;53.97;19.37;;;;;;;1.98;100.00;98910.53;4173742;28;21876;-68
2023/12/11 04:48:28;;;;;;;58.80;18.93;;;;;;;1.99;100.00;98911.41;4173681;28;20290;-66
2023/12/11 04:50:55;;;;;;;54.07;20.10;;;;;;;1.92;100.00;98924.41;4184493;28;20293;-68
2023/12/11 04:53:21;;;;;;;53.03;18.03;;;;;;;1.96;100.00;98925.84;4185848;28;20313;-69
2023/12/11 04:55:48;;;;;;;49.57;19.00;;;;;;;1.88;100.00;98923.00;4186746;28;22856;-67
2023/12/11 04:58:15;;;;;;;45.20;18.40;;;;;;;1.90;100.00;98916.53;4185006;28;21633;-66
2023/12/11 05:00:42;;;;;;;53.23;20.17;;;;;;;1.93;100.00;98914.59;4191893;28;20423;-67
2023/12/11 05:03:09;;;;;;;46.63;18.67;;;;;;;1.90;100.00;98911.22;4191840;28;23406;-68
2023/12/11 05:05:36;;;;;;;53.83;18.93;;;;;;;1.96;100.00;98930.34;4188310;28;20565;-68
2023/12/11 05:08:03;;;;;;;49.07;17.90;;;;;;;1.98;100.00;98929.22;4184080;28;20583;-67
2023/12/11 05:10:29;;;;;;;50.10;18.30;;;;;;;1.98;100.00;98947.06;4186804;28;20513;-71
2023/12/11 05:12:56;;;;;;;58.60;21.23;;;;;;;1.95;100.00;98934.84;4182541;28;20249;-70
2023/12/11 05:15:23;;;;;;;54.47;19.10;;;;;;;1.95;100.00;98936.63;4186702;28;20229;-68
2023/12/11 05:17:49;;;;;;;53.47;18.50;;;;;;;1.99;100.00;98951.44;4184994;28;20241;-68
2023/12/11 05:20:18;;;;;;;53.50;18.63;;;;;;;2.01;100.00;98953.00;4181655;28;20303;-67
2023/12/11 05:22:45;;;;;;;52.47;18.80;;;;;;;2.06;100.00;98942.78;4186642;28;20229;-66
2023/12/11 05:25:12;;;;;;;42.50;15.73;;;;;;;2.21;100.00;98950.44;4190936;28;22092;-68
2023/12/11 05:27:39;;;;;;;49.17;17.57;;;;;;;2.20;100.00;98941.59;4181368;28;22256;-69
2023/12/11 05:30:07;;;;;;;45.57;17.20;;;;;;;2.08;100.00;98936.47;4181762;28;23031;-67
2023/12/11 05:32:36;;;;;;;50.67;16.77;;;;;;;2.20;100.00;98938.06;4188277;28;22223;-68
2023/12/11 05:35:04;;;;;;;50.87;17.53;;;;;;;2.19;100.00;98939.91;4185219;28;21743;-66
2023/12/11 05:37:30;;;;;;;41.70;15.97;;;;;;;2.14;100.00;98936.78;4185514;28;20242;-70
2023/12/11 05:39:57;;;;;;;56.60;16.70;;;;;;;2.21;100.00;98939.78;4194249;28;20240;-67
2023/12/11 05:42:44;;;;;;;46.73;16.43;;;;;;;2.22;100.00;98936.13;4182577;28;20415;-67
2023/12/11 05:45:11;;;;;;;43.87;15.77;;;;;;;2.28;100.00;98932.91;4180721;28;20547;-69
2023/12/11 05:47:37;;;;;;;54.73;16.00;;;;;;;2.15;100.00;98927.78;4180634;28;20233;-67
2023/12/11 05:50:05;;;;;;;38.07;13.43;;;;;;;2.29;100.00;98920.44;4189448;28;20313;-68
2023/12/11 05:52:31;;;;;;;39.30;14.23;;;;;;;2.22;100.00;98912.09;4201602;28;20222;-68
2023/12/11 05:54:58;;;;;;;48.03;14.70;;;;;;;2.17;100.00;98922.34;4178748;28;20791;-69
2023/12/11 05:57:25;;;;;;;41.90;14.73;;;;;;;2.19;100.00;98907.03;4185323;28;21374;-68
2023/12/11 05:59:51;;;;;;;40.77;13.93;;;;;;;2.20;100.00;98903.38;4183180;28;20245;-68
2023/12/11 06:02:18;;;;;;;47.87;15.23;;;;;;;2.28;100.00;98900.88;4194888;28;20250;-68
2023/12/11 06:04:44;;;;;;;43.03;14.73;;;;;;;2.30;100.00;98890.91;4174278;28;21182;-69
2023/12/11 06:07:11;;;;;;;40.00;13.50;;;;;;;2.24;100.00;98896.81;4187009;28;20582;-66
2023/12/11 06:09:38;;;;;;;46.90;14.40;;;;;;;2.16;100.00;98897.44;4184139;28;20744;-69
2023/12/11 06:12:05;;;;;;;38.37;13.93;;;;;;;2.25;100.00;98886.94;4190275;28;20297;-69
2023/12/11 06:14:32;;;;;;;44.73;14.57;;;;;;;2.16;100.00;98897.44;4175682;28;20240;-67
2023/12/11 06:16:59;;;;;;;42.33;14.37;;;;;;;2.25;100.00;98887.81;4173512;28;22255;-69
2023/12/11 06:19:26;;;;;;;44.73;14.27;;;;;;;2.21;100.00;98878.34;4184397;28;20459;-66
2023/12/11 06:21:53;;;;;;;40.30;14.37;;;;;;;2.24;100.00;98875.44;4185105;28;23126;-71
2023/12/11 06:24:19;;;;;;;45.07;14.60;;;;;;;2.26;100.00;98883.31;4175632;28;20233;-66
2023/12/11 06:26:46;;;;;;;42.53;13.27;;;;;;;2.22;100.00;98880.06;4195760;28;20256;-66
2023/12/11 06:29:13;;;;;;;44.37;14.83;;;;;;;2.28;100.00;98866.16;4186544;28;25299;-68
2023/12/11 06:31:39;;;;;;;44.27;14.50;;;;;;;2.21;100.00;98870.34;4191763;28;20238;-67
2023/12/11 06:34:06;;;;;;;44.47;13.77;;;;;;;2.13;100.00;98864.81;4171358;28;20237;-65
2023/12/11 06:36:33;;;;;;;43.10;14.87;;;;;;;2.20;100.00;98856.16;4203390;28;20437;-67
2023/12/11 06:39:01;;;;;;;47.07;15.80;;;;;;;2.21;100.00;98867.69;4186989;28;20236;-66
2023/12/11 06:41:28;;;;;;;49.73;14.83;;;;;;;2.19;100.00;98873.16;4182598;28;20231;-68
2023/12/11 06:43:57;;;;;;;43.53;14.93;;;;;;;2.16;100.00;98864.56;4181261;28;20244;-67
2023/12/11 06:46:28;;;;;;;39.77;15.30;;;;;;;2.15;100.00;98861.03;4183138;28;21379;-65
2023/12/11 06:48:58;;;;;;;47.50;16.10;;;;;;;1.96;100.00;98868.94;4175491;28;20579;-68
2023/12/11 06:51:27;;;;;;;38.17;15.10;;;;;;;2.15;100.00;98857.53;4182760;28;21533;-64
2023/12/11 06:53:58;;;;;;;50.03;15.10;;;;;;;1.96;100.00;98861.81;4183010;28;20231;-68
2023/12/11 06:56:27;;;;;;;48.93;15.63;;;;;;;2.08;100.00;98859.03;4180114;28;20244;-68
2023/12/11 06:58:53;;;;;;;44.97;15.57;;;;;;;2.04;100.00;98853.13;4182707;28;20279;-67
2023/12/11 07:01:29;;;;;;;39.90;14.17;;;;;;;2.03;100.00;98852.28;4188091;28;21930;-65
2023/12/11 07:03:56;;;;;;;42.23;15.03;;;;;;;1.97;100.00;98851.97;4184137;28;21784;-68
2023/12/11 07:06:23;;;;;;;42.67;14.67;;;;;;;2.09;100.00;98850.06;4186039;28;20240;-68
2023/12/11 07:08:50;;;;;;;43.70;14.83;;;;;;;1.95;100.00;98838.75;4191976;28;20761;-70
2023/12/11 07:11:17;;;;;;;49.93;16.00;;;;;;;1.83;100.00;98840.66;4190007;28;20237;-69
2023/12/11 07:13:44;;;;;;;48.57;15.70;;;;;;;1.88;100.00;98832.25;4178507;28;20431;-70
2023/12/11 07:16:12;;;;;;;44.63;14.63;;;;;;;2.09;100.00;98821.53;4196726;28;20565;-68
2023/12/11 07:18:39;;;;;;;47.97;16.20;;;;;;;2.11;100.00;98821.44;4185500;28;20230;-69
2023/12/11 07:21:10;;;;;;;45.47;14.40;;;;;;;2.11;100.00;98816.91;4186145;28;21774;-68
2023/12/11 07:23:38;;;;;;;42.10;14.47;;;;;;;2.12;100.00;98815.09;4187439;28;20234;-68
2023/12/11 07:26:08;;;;;;;48.10;15.80;;;;;;;2.13;100.00;98811.44;4193372;28;20229;-69
2023/12/11 07:28:36;;;;;;;38.37;15.00;;;;;;;2.21;100.00;98807.13;4201795;28;20229;-70
2023/12/11 07:31:05;;;;;;;40.43;15.37;;;;;;;2.17;100.00;98812.88;4185028;28;21300;-67
2023/12/11 07:33:33;;;;;;;46.07;15.53;;;;;;;2.18;100.00;98810.06;4203163;28;20304;-68
2023/12/11 07:36:02;;;;;;;42.23;15.77;;;;;;;2.14;100.00;98810.47;4175087;28;20241;-75
2023/12/11 07:38:28;;;;;;;38.27;14.87;;;;;;;2.11;100.00;98811.59;4174904;28;20986;-68
2023/12/11 07:40:56;;;;;;;42.17;15.47;;;;;;;2.11;100.00;98808.91;4193392;28;20242;-70
2023/12/11 07:43:23;;;;;;;43.03;14.77;;;;;;;2.15;100.00;98809.50;4196634;28;20233;-67
2023/12/11 07:45:51;;;;;;;45.07;16.63;;;;;;;2.08;100.00;98808.34;4201174;28;20239;-67
2023/12/11 07:48:18;;;;;;;39.20;16.47;;;;;;;2.00;100.00;98791.16;4216207;28;20233;-68
2023/12/11 07:50:46;;;;;;;44.73;15.63;;;;;;;2.11;100.00;98798.22;4194438;28;26051;-66
2023/12/11 07:53:13;;;;;;;47.63;16.23;;;;;;;2.19;100.00;98790.41;4204629;28;20587;-69
2023/12/11 07:55:40;;;;;;;42.83;15.50;;;;;;;2.11;100.00;98786.72;4198571;28;21188;-67
2023/12/11 07:58:07;;;;;;;39.87;15.00;;;;;;;2.05;100.00;98791.59;4192903;28;20267;-71
2023/12/11 08:00:34;;;;;;;46.17;15.67;;;;;;;2.16;100.00;98785.31;4191681;28;20248;-67
2023/12/11 08:03:04;;;;;;;38.17;15.57;;;;;;;2.13;100.00;98785.59;4190004;28;20248;-71
2023/12/11 08:05:31;;;;;;;42.80;13.97;;;;;;;2.17;100.00;98797.69;4191545;28;20244;-71
2023/12/11 08:07:58;;;;;;;40.90;15.50;;;;;;;2.12;100.00;98786.59;4199509;28;22666;-69
2023/12/11 08:10:25;;;;;;;44.23;14.30;;;;;;;1.98;100.00;98776.28;4178117;28;20234;-70
2023/12/11 08:12:52;;;;;;;42.63;15.10;;;;;;;2.04;100.00;98773.06;4185882;28;21316;-70
2023/12/11 08:15:19;;;;;;;47.83;14.80;;;;;;;2.04;100.00;98768.56;4188421;28;20427;-70
2023/12/11 08:17:46;;;;;;;41.53;14.90;;;;;;;2.12;100.00;98757.22;4180195;28;20237;-66
2023/12/11 08:20:16;;;;;;;32.57;12.40;;;;;;;2.18;100.00;98756.66;4189260;28;26615;-73
2023/12/11 08:22:44;;;;;;;38.47;13.97;;;;;;;2.17;100.00;98749.63;4196833;28;20237;-67
2023/12/11 08:25:12;;;;;;;38.87;13.63;;;;;;;2.21;100.00;98764.41;4189932;28;20720;-67
2023/12/11 08:27:41;;;;;;;34.77;13.60;;;;;;;2.12;100.00;98759.88;4207303;28;22478;-69
2023/12/11 08:30:09;;;;;;;32.80;12.57;;;;;;;2.20;100.00;98772.53;4201433;28;20226;-74
2023/12/11 08:32:38;;;;;;;33.13;13.20;;;;;;;2.29;100.00;98758.38;4170569;28;20240;-68
2023/12/11 08:35:05;;;;;;;34.80;11.97;;;;;;;2.29;100.00;98753.06;4193850;28;20244;-73
2023/12/11 08:37:32;;;;;;;40.03;12.73;;;;;;;2.30;100.00;98749.41;4179764;28;20598;-71
2023/12/11 08:40:00;;;;;;;36.30;12.33;;;;;;;2.19;100.00;98746.84;4225465;28;22891;-71
2023/12/11 08:42:27;;;;;;;33.63;11.77;;;;;;;2.25;100.00;98748.13;4196475;28;20265;-68
2023/12/11 08:44:54;;;;;;;34.80;12.60;;;;;;;2.28;100.00;98743.34;4206107;28;20265;-66
2023/12/11 08:47:21;;;;;;;40.40;13.10;;;;;;;2.25;100.00;98730.28;4182312;28;20407;-70
2023/12/11 08:49:47;;;;;;;33.40;11.63;;;;;;;2.23;100.00;98729.56;4184996;28;21150;-71
2023/12/11 08:52:14;;;;;;;36.80;12.37;;;;;;;2.33;100.00;98713.56;4190908;28;23526;-66
2023/12/11 08:54:41;;;;;;;31.80;12.30;;;;;;;2.32;100.00;98719.88;4196135;28;21647;-71
2023/12/11 08:57:09;;;;;;;42.37;12.50;;;;;;;2.37;100.00;98712.34;4177343;28;22082;-71
2023/12/11 08:59:37;;;;;;;31.50;10.63;;;;;;;2.38;100.00;98717.53;4188229;28;21329;-66
2023/12/11 09:02:04;;;;;;;38.43;11.10;;;;;;;2.45;100.00;98723.16;4189374;28;25533;-68
2023/12/11 09:04:33;;;;;;;35.37;11.03;;;;;;;2.41;100.00;98707.56;4177937;28;22558;-71
2023/12/11 09:07:00;;;;;;;31.57;9.90;;;;;;;2.57;100.00;98707.00;4186972;28;20309;-69
2023/12/11 09:09:26;;;;;;;23.20;9.83;;;;;;;2.64;100.00;98698.31;4190188;28;20237;-70
2023/12/11 09:11:53;;;;;;;33.03;9.80;;;;;;;2.63;100.00;98693.94;4191018;28;20249;-69
2023/12/11 09:14:20;;;;;;;27.73;9.27;;;;;;;2.65;100.00;98707.16;4187501;28;20260;-71
2023/12/11 09:16:47;;;;;;;25.37;9.20;;;;;;;2.66;100.00;98696.31;4187865;28;20269;-66
2023/12/11 09:19:13;;;;;;;22.90;8.90;;;;;;;2.65;100.00;98701.81;4196604;28;22670;-68
2023/12/11 09:21:41;;;;;;;27.77;9.13;;;;;;;2.66;100.00;98684.81;4180329;28;20242;-68
2023/12/11 09:24:09;;;;;;;32.73;9.10;;;;;;;2.74;100.00;98692.09;4182768;28;22827;-69
2023/12/11 09:26:36;;;;;;;21.17;8.93;;;;;;;2.64;100.00;98697.44;4186140;28;20357;-69
2023/12/11 09:29:03;;;;;;;26.03;8.97;;;;;;;2.72;100.00;98686.91;4200807;28;20281;-71
2023/12/11 09:31:30;;;;;;;28.03;9.27;;;;;;;2.72;100.00;98676.22;4184927;28;25429;-74
2023/12/11 09:33:56;;;;;;;28.17;9.00;;;;;;;2.77;100.00;98686.50;4182271;28;23728;-69
2023/12/11 09:36:24;;;;;;;24.93;8.60;;;;;;;2.77;100.00;98689.16;4182688;28;20249;-67
2023/12/11 09:38:50;;;;;;;29.37;8.60;;;;;;;2.78;100.00;98682.84;4189745;28;20242;-68
2023/12/11 09:41:17;;;;;;;22.30;8.17;;;;;;;2.88;100.00;98678.31;4177021;28;20232;-66
2023/12/11 09:43:47;;;;;;;24.20;8.27;;;;;;;2.84;100.00;98674.25;4178400;28;20856;-66
2023/12/11 09:46:17;;;;;;;23.63;7.27;;;;;;;2.80;100.00;98664.81;4186593;28;25574;-66
2023/12/11 09:48:47;;;;;;;30.27;8.23;;;;;;;2.84;100.00;98671.56;4189044;28;21171;-67
2023/12/11 09:51:15;;;;;;;30.07;9.10;;;;;;;2.86;100.00;98669.63;4171974;28;25510;-66
2023/12/11 09:53:42;;;;;;;21.80;8.07;;;;;;;2.78;100.00;98662.28;4192604;28;20245;-65
2023/12/11 09:56:12;;;;;;;18.70;7.50;;;;;;;2.80;100.00;98662.13;4181783;28;21617;-67
2023/12/11 09:58:42;;;;;;;25.37;8.03;;;;;;;2.83;100.00;98662.69;4187104;28;21040;-68
2023/12/11 10:01:13;;;;;;;21.43;8.20;;;;;;;2.77;100.00;98641.06;4181405;28;23085;-66
2023/12/11 10:03:40;;;;;;;24.20;7.80;;;;;;;2.74;100.00;98658.22;4177513;28;20233;-69
2023/12/11 10:06:07;;;;;;;25.60;7.90;;;;;;;2.88;100.00;98645.41;4186135;28;20307;-65
2023/12/11 10:08:46;;;;;;;25.67;9.57;;;;;;;2.85;100.00;98626.00;4187247;28;20229;-69
2023/12/11 10:11:15;;;;;;;28.83;8.37;;;;;;;2.76;100.00;98632.19;4183781;28;21227;-67
2023/12/11 10:13:41;;;;;;;20.90;7.90;;;;;;;2.81;100.00;98642.44;4188623;28;20571;-69
2023/12/11 10:16:29;;;;;;;24.57;8.70;;;;;;;2.78;100.00;98632.06;4187004;28;20241;-69
2023/12/11 10:18:56;;;;;;;21.37;8.33;;;;;;;2.73;100.00;98631.63;4185702;28;20823;-67
2023/12/11 10:21:24;;;;;;;25.83;8.37;;;;;;;2.76;100.00;98628.69;4182071;28;20246;-72
2023/12/11 10:24:05;;;;;;;20.47;8.20;;;;;;;2.81;100.00;98632.63;4180750;28;20237;-68
2023/12/11 10:26:33;;;;;;;28.13;8.63;;;;;;;2.84;100.00;98620.81;4206199;28;20253;-68
2023/12/11 10:29:22;;;;;;;25.23;8.53;;;;;;;2.93;100.00;98627.09;4186911;28;20234;-69
2023/12/11 10:31:50;;;;;;;21.70;7.83;;;;;;;3.00;100.00;98628.22;4168717;28;20303;-68
2023/12/11 10:34:17;;;;;;;23.25;8.70;;;;;;;3.10;100.00;98626.38;4206738;28;20479;-67
2023/12/11 10:36:52;;;;;;;22.70;8.13;;;;;;;3.07;100.00;98613.28;4192851;28;20361;-67
2023/12/11 10:39:22;;;;;;;25.40;7.50;;;;;;;2.98;100.00;98622.19;4191419;28;20240;-66
2023/12/11 10:41:52;;;;;;;18.77;7.37;;;;;;;3.11;100.00;98619.19;4190166;28;20324;-70
2023/12/11 10:44:27;;;;;;;22.20;7.57;;;;;;;3.13;100.00;98618.09;4196415;28;20243;-67
2023/12/11 10:46:57;;;;;;;26.13;7.60;;;;;;;3.10;100.00;98613.00;4191483;28;20493;-69
2023/12/11 10:49:25;;;;;;;22.43;7.27;;;;;;;3.22;100.00;98613.69;4175222;28;20235;-67
2023/12/11 10:51:52;;;;;;;19.20;6.93;;;;;;;3.28;100.00;98609.59;4196402;28;20236;-69
2023/12/11 10:54:20;;;;;;;17.60;6.77;;;;;;;3.32;100.00;98608.31;4189384;28;20300;-68
2023/12/11 10:56:48;;;;;;;17.60;7.07;;;;;;;3.32;100.00;98603.78;4195964;28;20924;-69
2023/12/11 10:59:16;;;;;;;23.77;7.27;;;;;;;3.35;100.00;98601.81;4183795;28;20244;-66
2023/12/11 11:01:46;;;;;;;22.13;7.57;;;;;;;3.45;100.00;98603.44;4195197;28;20242;-69
2023/12/11 11:04:16;;;;;;;22.03;7.13;;;;;;;3.47;100.00;98596.13;4214401;28;21783;-69
2023/12/11 11:06:48;;;;;;;20.10;7.43;;;;;;;3.44;100.00;98596.41;4177797;28;20269;-68
2023/12/11 11:09:28;;;;;;;21.50;7.47;;;;;;;3.46;100.00;98601.63;4201973;28;20239;-70
2023/12/11 11:12:03;;;;;;;18.87;6.47;;;;;;;3.51;100.00;98598.53;4207042;28;20296;-67
2023/12/11 11:14:48;;;;;;;19.13;7.80;;;;;;;3.48;100.00;98599.63;4196100;28;20311;-67
2023/12/11 11:17:16;;;;;;;19.77;7.37;;;;;;;3.58;100.00;98592.41;4179084;28;20661;-67
2023/12/11 11:20:13;;;;;;;17.07;6.90;;;;;;;3.52;100.00;98598.38;4201635;28;22920;-66
2023/12/11 11:22:40;;;;;;;21.57;7.73;;;;;;;3.58;100.00;98589.75;4227880;28;21759;-66